sensor_id;sensor_type;location;lat;lon;timestamp;P1;durP1;ratioP1;P2;durP2;ratioP2
28028;SDS011;15345;59.364;18.016;2023-06-14T00:01:10;5.30;;;1.88;;
28028;SDS011;15345;59.364;18.016;2023-06-14T00:02:32;4.05;;;2.15;;
28028;SDS011;15345;59.364;18.016;2023-06-14T00:03:51;4.57;;;2.78;;
28028;SDS011;15345;59.364;18.016;2023-06-14T00:05:10;6.03;;;2.25;;
28028;SDS011;15345;59.364;18.016;2023-06-14T00:06:33;5.68;;;2.50;;
28028;SDS011;15345;59.364;18.016;2023-06-14T00:07:52;4.72;;;2.75;;
28028;SDS011;15345;59.364;18.016;2023-06-14T00:09:12;9.73;;;3.38;;
28028;SDS011;15345;59.364;18.016;2023-06-14T00:10:36;11.38;;;3.35;;
28028;SDS011;15345;59.364;18.016;2023-06-14T00:11:56;10.48;;;3.15;;
28028;SDS011;15345;59.364;18.016;2023-06-14T00:13:15;5.25;;;3.05;;
28028;SDS011;15345;59.364;18.016;2023-06-14T00:14:34;9.35;;;3.90;;
28028;SDS011;15345;59.364;18.016;2023-06-14T00:15:53;6.45;;;4.30;;
28028;SDS011;15345;59.364;18.016;2023-06-14T00:17:13;8.43;;;5.75;;
28028;SDS011;15345;59.364;18.016;2023-06-14T00:18:35;11.27;;;5.03;;
28028;SDS011;15345;59.364;18.016;2023-06-14T00:19:54;12.73;;;5.85;;
28028;SDS011;15345;59.364;18.016;2023-06-14T00:21:12;9.55;;;5.57;;
28028;SDS011;15345;59.364;18.016;2023-06-14T00:22:31;10.38;;;5.78;;
28028;SDS011;15345;59.364;18.016;2023-06-14T00:23:51;16.17;;;6.80;;
28028;SDS011;15345;59.364;18.016;2023-06-14T00:25:10;10.85;;;6.53;;
28028;SDS011;15345;59.364;18.016;2023-06-14T00:26:29;13.45;;;8.05;;
28028;SDS011;15345;59.364;18.016;2023-06-14T00:27:48;12.70;;;6.93;;
28028;SDS011;15345;59.364;18.016;2023-06-14T00:29:07;13.82;;;6.75;;
28028;SDS011;15345;59.364;18.016;2023-06-14T00:30:26;13.73;;;5.25;;
28028;SDS011;15345;59.364;18.016;2023-06-14T00:31:49;11.73;;;9.25;;
28028;SDS011;15345;59.364;18.016;2023-06-14T00:33:08;15.93;;;7.35;;
28028;SDS011;15345;59.364;18.016;2023-06-14T00:34:27;12.10;;;7.65;;
28028;SDS011;15345;59.364;18.016;2023-06-14T00:35:45;16.17;;;9.88;;
28028;SDS011;15345;59.364;18.016;2023-06-14T00:37:05;16.77;;;9.40;;
28028;SDS011;15345;59.364;18.016;2023-06-14T00:38:24;18.10;;;10.40;;
28028;SDS011;15345;59.364;18.016;2023-06-14T00:39:43;12.95;;;8.90;;
28028;SDS011;15345;59.364;18.016;2023-06-14T00:41:02;10.60;;;6.53;;
28028;SDS011;15345;59.364;18.016;2023-06-14T00:42:28;13.07;;;6.55;;
28028;SDS011;15345;59.364;18.016;2023-06-14T00:43:47;8.10;;;5.25;;
28028;SDS011;15345;59.364;18.016;2023-06-14T00:45:06;12.55;;;7.05;;
28028;SDS011;15345;59.364;18.016;2023-06-14T00:46:25;10.32;;;7.03;;
28028;SDS011;15345;59.364;18.016;2023-06-14T00:47:43;9.25;;;6.32;;
28028;SDS011;15345;59.364;18.016;2023-06-14T00:49:04;5.75;;;5.28;;
28028;SDS011;15345;59.364;18.016;2023-06-14T00:50:23;10.68;;;6.03;;
28028;SDS011;15345;59.364;18.016;2023-06-14T00:51:43;15.25;;;6.55;;
28028;SDS011;15345;59.364;18.016;2023-06-14T00:53:02;13.05;;;7.22;;
28028;SDS011;15345;59.364;18.016;2023-06-14T00:54:21;9.43;;;6.07;;
28028;SDS011;15345;59.364;18.016;2023-06-14T00:55:41;9.73;;;6.22;;
28028;SDS011;15345;59.364;18.016;2023-06-14T00:57:00;10.32;;;5.75;;
28028;SDS011;15345;59.364;18.016;2023-06-14T00:58:19;8.07;;;5.10;;
28028;SDS011;15345;59.364;18.016;2023-06-14T00:59:41;6.97;;;4.68;;
28028;SDS011;15345;59.364;18.016;2023-06-14T01:01:01;5.47;;;3.97;;
28028;SDS011;15345;59.364;18.016;2023-06-14T01:02:20;5.70;;;3.78;;
28028;SDS011;15345;59.364;18.016;2023-06-14T01:03:39;4.13;;;3.28;;
28028;SDS011;15345;59.364;18.016;2023-06-14T01:04:59;4.07;;;3.53;;
28028;SDS011;15345;59.364;18.016;2023-06-14T01:09:26;6.60;;;4.65;;
28028;SDS011;15345;59.364;18.016;2023-06-14T01:12:21;5.68;;;4.20;;
28028;SDS011;15345;59.364;18.016;2023-06-14T01:13:45;9.50;;;5.00;;
28028;SDS011;15345;59.364;18.016;2023-06-14T01:15:04;10.18;;;4.15;;
28028;SDS011;15345;59.364;18.016;2023-06-14T01:16:24;6.30;;;3.30;;
28028;SDS011;15345;59.364;18.016;2023-06-14T01:17:43;8.00;;;3.60;;
28028;SDS011;15345;59.364;18.016;2023-06-14T01:19:05;7.00;;;4.30;;
28028;SDS011;15345;59.364;18.016;2023-06-14T01:20:27;7.15;;;4.00;;
28028;SDS011;15345;59.364;18.016;2023-06-14T01:21:46;4.40;;;4.00;;
28028;SDS011;15345;59.364;18.016;2023-06-14T01:23:09;5.90;;;3.38;;
28028;SDS011;15345;59.364;18.016;2023-06-14T01:24:30;7.22;;;3.83;;
28028;SDS011;15345;59.364;18.016;2023-06-14T01:25:53;8.98;;;3.85;;
28028;SDS011;15345;59.364;18.016;2023-06-14T01:27:12;8.55;;;4.03;;
28028;SDS011;15345;59.364;18.016;2023-06-14T01:28:32;3.83;;;3.30;;
28028;SDS011;15345;59.364;18.016;2023-06-14T01:29:52;7.90;;;4.13;;
28028;SDS011;15345;59.364;18.016;2023-06-14T01:31:19;6.07;;;4.28;;
28028;SDS011;15345;59.364;18.016;2023-06-14T01:32:40;8.23;;;4.15;;
28028;SDS011;15345;59.364;18.016;2023-06-14T01:33:59;9.45;;;4.50;;
28028;SDS011;15345;59.364;18.016;2023-06-14T01:35:18;7.70;;;4.65;;
28028;SDS011;15345;59.364;18.016;2023-06-14T01:36:37;6.15;;;4.65;;
28028;SDS011;15345;59.364;18.016;2023-06-14T01:37:57;8.60;;;5.47;;
28028;SDS011;15345;59.364;18.016;2023-06-14T01:39:17;8.57;;;4.22;;
28028;SDS011;15345;59.364;18.016;2023-06-14T01:40:36;13.93;;;5.10;;
28028;SDS011;15345;59.364;18.016;2023-06-14T01:41:56;5.53;;;3.70;;
28028;SDS011;15345;59.364;18.016;2023-06-14T01:43:16;7.25;;;4.47;;
28028;SDS011;15345;59.364;18.016;2023-06-14T01:44:35;7.95;;;4.28;;
28028;SDS011;15345;59.364;18.016;2023-06-14T01:45:54;10.05;;;4.30;;
28028;SDS011;15345;59.364;18.016;2023-06-14T01:47:14;6.35;;;4.10;;
28028;SDS011;15345;59.364;18.016;2023-06-14T01:48:34;5.45;;;4.10;;
28028;SDS011;15345;59.364;18.016;2023-06-14T01:49:53;7.13;;;4.18;;
28028;SDS011;15345;59.364;18.016;2023-06-14T01:51:12;9.15;;;3.70;;
28028;SDS011;15345;59.364;18.016;2023-06-14T01:52:31;8.07;;;3.83;;
28028;SDS011;15345;59.364;18.016;2023-06-14T01:53:50;8.75;;;3.70;;
28028;SDS011;15345;59.364;18.016;2023-06-14T01:55:09;6.63;;;3.08;;
28028;SDS011;15345;59.364;18.016;2023-06-14T01:56:28;3.33;;;2.97;;
28028;SDS011;15345;59.364;18.016;2023-06-14T01:57:47;6.40;;;3.35;;
28028;SDS011;15345;59.364;18.016;2023-06-14T01:59:06;10.75;;;4.00;;
28028;SDS011;15345;59.364;18.016;2023-06-14T02:00:25;8.20;;;3.90;;
28028;SDS011;15345;59.364;18.016;2023-06-14T02:01:44;15.88;;;4.30;;
28028;SDS011;15345;59.364;18.016;2023-06-14T02:03:04;8.48;;;4.35;;
28028;SDS011;15345;59.364;18.016;2023-06-14T02:04:23;12.30;;;4.25;;
28028;SDS011;15345;59.364;18.016;2023-06-14T02:05:43;6.50;;;4.00;;
28028;SDS011;15345;59.364;18.016;2023-06-14T02:07:02;13.13;;;4.70;;
28028;SDS011;15345;59.364;18.016;2023-06-14T02:08:21;10.00;;;4.28;;
28028;SDS011;15345;59.364;18.016;2023-06-14T02:09:41;13.35;;;4.97;;
28028;SDS011;15345;59.364;18.016;2023-06-14T02:11:00;13.27;;;3.97;;
28028;SDS011;15345;59.364;18.016;2023-06-14T02:12:19;8.65;;;4.05;;
28028;SDS011;15345;59.364;18.016;2023-06-14T02:13:38;12.40;;;3.92;;
28028;SDS011;15345;59.364;18.016;2023-06-14T02:14:57;13.13;;;4.60;;
28028;SDS011;15345;59.364;18.016;2023-06-14T02:16:16;10.07;;;4.47;;
28028;SDS011;15345;59.364;18.016;2023-06-14T02:17:36;14.98;;;4.50;;
28028;SDS011;15345;59.364;18.016;2023-06-14T02:18:55;9.13;;;4.32;;
28028;SDS011;15345;59.364;18.016;2023-06-14T02:20:14;6.22;;;3.83;;
28028;SDS011;15345;59.364;18.016;2023-06-14T02:21:33;7.75;;;3.67;;
28028;SDS011;15345;59.364;18.016;2023-06-14T02:22:52;7.18;;;3.65;;
28028;SDS011;15345;59.364;18.016;2023-06-14T02:24:12;6.82;;;3.03;;
28028;SDS011;15345;59.364;18.016;2023-06-14T02:25:31;5.30;;;3.60;;
28028;SDS011;15345;59.364;18.016;2023-06-14T02:26:50;9.75;;;3.40;;
28028;SDS011;15345;59.364;18.016;2023-06-14T02:28:09;5.95;;;3.08;;
28028;SDS011;15345;59.364;18.016;2023-06-14T02:29:28;5.32;;;3.50;;
28028;SDS011;15345;59.364;18.016;2023-06-14T02:30:47;6.75;;;3.83;;
28028;SDS011;15345;59.364;18.016;2023-06-14T02:32:06;12.50;;;3.30;;
28028;SDS011;15345;59.364;18.016;2023-06-14T02:33:25;5.30;;;3.47;;
28028;SDS011;15345;59.364;18.016;2023-06-14T02:34:44;7.93;;;3.13;;
28028;SDS011;15345;59.364;18.016;2023-06-14T02:36:08;5.35;;;3.17;;
28028;SDS011;15345;59.364;18.016;2023-06-14T02:37:27;8.38;;;2.30;;
28028;SDS011;15345;59.364;18.016;2023-06-14T02:38:46;5.05;;;3.13;;
28028;SDS011;15345;59.364;18.016;2023-06-14T02:40:05;5.22;;;3.20;;
28028;SDS011;15345;59.364;18.016;2023-06-14T02:41:24;4.30;;;3.10;;
28028;SDS011;15345;59.364;18.016;2023-06-14T02:42:44;4.93;;;3.13;;
28028;SDS011;15345;59.364;18.016;2023-06-14T02:44:03;8.20;;;2.65;;
28028;SDS011;15345;59.364;18.016;2023-06-14T02:45:23;6.78;;;3.15;;
28028;SDS011;15345;59.364;18.016;2023-06-14T02:46:42;5.70;;;3.00;;
28028;SDS011;15345;59.364;18.016;2023-06-14T02:48:02;3.92;;;3.15;;
28028;SDS011;15345;59.364;18.016;2023-06-14T02:49:21;7.25;;;3.70;;
28028;SDS011;15345;59.364;18.016;2023-06-14T02:50:41;5.65;;;2.92;;
28028;SDS011;15345;59.364;18.016;2023-06-14T02:51:59;8.43;;;3.08;;
28028;SDS011;15345;59.364;18.016;2023-06-14T02:53:18;5.68;;;3.30;;
28028;SDS011;15345;59.364;18.016;2023-06-14T02:54:37;8.13;;;3.33;;
28028;SDS011;15345;59.364;18.016;2023-06-14T02:55:56;8.73;;;3.22;;
28028;SDS011;15345;59.364;18.016;2023-06-14T02:57:15;9.60;;;3.45;;
28028;SDS011;15345;59.364;18.016;2023-06-14T02:58:36;22.05;;;4.65;;
28028;SDS011;15345;59.364;18.016;2023-06-14T02:59:55;10.70;;;3.65;;
28028;SDS011;15345;59.364;18.016;2023-06-14T03:01:14;14.48;;;3.60;;
28028;SDS011;15345;59.364;18.016;2023-06-14T03:02:33;8.93;;;4.03;;
28028;SDS011;15345;59.364;18.016;2023-06-14T03:03:51;7.63;;;3.45;;
28028;SDS011;15345;59.364;18.016;2023-06-14T03:05:11;9.30;;;3.33;;
28028;SDS011;15345;59.364;18.016;2023-06-14T03:06:30;13.88;;;3.47;;
28028;SDS011;15345;59.364;18.016;2023-06-14T03:07:49;7.43;;;3.60;;
28028;SDS011;15345;59.364;18.016;2023-06-14T03:09:09;12.38;;;4.43;;
28028;SDS011;15345;59.364;18.016;2023-06-14T03:10:28;12.07;;;4.80;;
28028;SDS011;15345;59.364;18.016;2023-06-14T03:11:47;11.55;;;3.92;;
28028;SDS011;15345;59.364;18.016;2023-06-14T03:13:06;12.77;;;4.38;;
28028;SDS011;15345;59.364;18.016;2023-06-14T03:14:25;11.68;;;5.82;;
28028;SDS011;15345;59.364;18.016;2023-06-14T03:15:44;9.40;;;4.75;;
28028;SDS011;15345;59.364;18.016;2023-06-14T03:17:03;12.65;;;5.43;;
28028;SDS011;15345;59.364;18.016;2023-06-14T03:18:23;12.77;;;5.15;;
28028;SDS011;15345;59.364;18.016;2023-06-14T03:19:42;15.02;;;5.28;;
28028;SDS011;15345;59.364;18.016;2023-06-14T03:21:02;12.93;;;5.55;;
28028;SDS011;15345;59.364;18.016;2023-06-14T03:22:21;10.23;;;5.10;;
28028;SDS011;15345;59.364;18.016;2023-06-14T03:23:40;16.15;;;5.55;;
28028;SDS011;15345;59.364;18.016;2023-06-14T03:24:59;21.63;;;5.15;;
28028;SDS011;15345;59.364;18.016;2023-06-14T03:26:18;7.53;;;4.43;;
28028;SDS011;15345;59.364;18.016;2023-06-14T03:27:37;9.85;;;5.10;;
28028;SDS011;15345;59.364;18.016;2023-06-14T03:28:56;12.82;;;4.55;;
28028;SDS011;15345;59.364;18.016;2023-06-14T03:30:15;11.32;;;4.80;;
28028;SDS011;15345;59.364;18.016;2023-06-14T03:31:34;5.43;;;3.55;;
28028;SDS011;15345;59.364;18.016;2023-06-14T03:32:53;9.27;;;3.40;;
28028;SDS011;15345;59.364;18.016;2023-06-14T03:34:14;7.72;;;3.72;;
28028;SDS011;15345;59.364;18.016;2023-06-14T03:35:34;11.82;;;3.78;;
28028;SDS011;15345;59.364;18.016;2023-06-14T03:36:53;10.70;;;3.75;;
28028;SDS011;15345;59.364;18.016;2023-06-14T03:38:12;8.77;;;4.10;;
28028;SDS011;15345;59.364;18.016;2023-06-14T03:39:31;10.18;;;3.88;;
28028;SDS011;15345;59.364;18.016;2023-06-14T03:40:50;4.50;;;3.80;;
28028;SDS011;15345;59.364;18.016;2023-06-14T03:42:09;9.95;;;4.00;;
28028;SDS011;15345;59.364;18.016;2023-06-14T03:43:29;11.30;;;3.97;;
28028;SDS011;15345;59.364;18.016;2023-06-14T03:44:48;11.15;;;3.53;;
28028;SDS011;15345;59.364;18.016;2023-06-14T03:46:07;8.68;;;3.85;;
28028;SDS011;15345;59.364;18.016;2023-06-14T03:47:26;12.60;;;3.63;;
28028;SDS011;15345;59.364;18.016;2023-06-14T03:48:45;8.10;;;3.65;;
28028;SDS011;15345;59.364;18.016;2023-06-14T03:50:05;10.07;;;3.75;;
28028;SDS011;15345;59.364;18.016;2023-06-14T03:51:24;9.27;;;3.45;;
28028;SDS011;15345;59.364;18.016;2023-06-14T03:52:44;6.75;;;3.45;;
28028;SDS011;15345;59.364;18.016;2023-06-14T03:54:03;5.97;;;3.53;;
28028;SDS011;15345;59.364;18.016;2023-06-14T03:55:22;8.05;;;3.58;;
28028;SDS011;15345;59.364;18.016;2023-06-14T03:56:43;6.10;;;3.35;;
28028;SDS011;15345;59.364;18.016;2023-06-14T03:58:04;12.75;;;3.80;;
28028;SDS011;15345;59.364;18.016;2023-06-14T03:59:23;8.95;;;3.28;;
28028;SDS011;15345;59.364;18.016;2023-06-14T04:00:42;5.90;;;3.70;;
28028;SDS011;15345;59.364;18.016;2023-06-14T04:02:01;6.43;;;3.60;;
28028;SDS011;15345;59.364;18.016;2023-06-14T04:03:20;8.65;;;3.60;;
28028;SDS011;15345;59.364;18.016;2023-06-14T04:04:48;15.40;;;4.28;;
28028;SDS011;15345;59.364;18.016;2023-06-14T04:06:07;11.07;;;3.72;;
28028;SDS011;15345;59.364;18.016;2023-06-14T04:07:26;14.05;;;4.43;;
28028;SDS011;15345;59.364;18.016;2023-06-14T04:08:47;7.25;;;3.97;;
28028;SDS011;15345;59.364;18.016;2023-06-14T04:10:08;13.55;;;3.80;;
28028;SDS011;15345;59.364;18.016;2023-06-14T04:11:27;15.00;;;4.32;;
28028;SDS011;15345;59.364;18.016;2023-06-14T04:12:46;8.95;;;4.13;;
28028;SDS011;15345;59.364;18.016;2023-06-14T04:14:05;10.77;;;4.72;;
28028;SDS011;15345;59.364;18.016;2023-06-14T04:15:24;12.18;;;5.30;;
28028;SDS011;15345;59.364;18.016;2023-06-14T04:16:43;9.35;;;4.60;;
28028;SDS011;15345;59.364;18.016;2023-06-14T04:18:03;5.38;;;4.20;;
28028;SDS011;15345;59.364;18.016;2023-06-14T04:19:22;7.63;;;3.05;;
28028;SDS011;15345;59.364;18.016;2023-06-14T04:20:41;8.20;;;3.38;;
28028;SDS011;15345;59.364;18.016;2023-06-14T04:22:00;6.75;;;3.08;;
28028;SDS011;15345;59.364;18.016;2023-06-14T04:23:20;4.93;;;3.42;;
28028;SDS011;15345;59.364;18.016;2023-06-14T04:24:40;3.58;;;2.95;;
28028;SDS011;15345;59.364;18.016;2023-06-14T04:26:01;4.32;;;2.67;;
28028;SDS011;15345;59.364;18.016;2023-06-14T04:27:20;7.55;;;3.38;;
28028;SDS011;15345;59.364;18.016;2023-06-14T04:28:40;11.85;;;4.05;;
28028;SDS011;15345;59.364;18.016;2023-06-14T04:29:59;8.45;;;3.70;;
28028;SDS011;15345;59.364;18.016;2023-06-14T04:31:21;9.27;;;3.42;;
28028;SDS011;15345;59.364;18.016;2023-06-14T04:32:39;8.85;;;3.33;;
28028;SDS011;15345;59.364;18.016;2023-06-14T04:33:59;9.77;;;3.92;;
28028;SDS011;15345;59.364;18.016;2023-06-14T04:35:18;14.30;;;3.58;;
28028;SDS011;15345;59.364;18.016;2023-06-14T04:36:37;6.15;;;3.45;;
28028;SDS011;15345;59.364;18.016;2023-06-14T04:37:56;7.80;;;3.67;;
28028;SDS011;15345;59.364;18.016;2023-06-14T04:39:16;8.80;;;3.22;;
28028;SDS011;15345;59.364;18.016;2023-06-14T04:40:36;9.38;;;3.70;;
28028;SDS011;15345;59.364;18.016;2023-06-14T04:42:01;11.50;;;4.43;;
28028;SDS011;15345;59.364;18.016;2023-06-14T04:43:22;8.20;;;3.80;;
28028;SDS011;15345;59.364;18.016;2023-06-14T04:44:44;9.98;;;3.78;;
28028;SDS011;15345;59.364;18.016;2023-06-14T04:46:06;9.25;;;3.20;;
28028;SDS011;15345;59.364;18.016;2023-06-14T04:47:29;13.57;;;3.45;;
28028;SDS011;15345;59.364;18.016;2023-06-14T04:48:48;10.10;;;3.58;;
28028;SDS011;15345;59.364;18.016;2023-06-14T04:50:09;7.55;;;3.83;;
28028;SDS011;15345;59.364;18.016;2023-06-14T04:51:29;8.25;;;3.72;;
28028;SDS011;15345;59.364;18.016;2023-06-14T04:52:49;26.42;;;4.20;;
28028;SDS011;15345;59.364;18.016;2023-06-14T04:54:10;13.07;;;3.72;;
28028;SDS011;15345;59.364;18.016;2023-06-14T04:55:32;7.30;;;3.80;;
28028;SDS011;15345;59.364;18.016;2023-06-14T04:56:51;9.25;;;3.33;;
28028;SDS011;15345;59.364;18.016;2023-06-14T04:58:11;12.10;;;3.65;;
28028;SDS011;15345;59.364;18.016;2023-06-14T04:59:31;13.52;;;4.22;;
28028;SDS011;15345;59.364;18.016;2023-06-14T05:00:54;9.77;;;3.92;;
28028;SDS011;15345;59.364;18.016;2023-06-14T05:02:14;19.23;;;4.22;;
28028;SDS011;15345;59.364;18.016;2023-06-14T05:03:33;15.13;;;4.47;;
28028;SDS011;15345;59.364;18.016;2023-06-14T05:04:53;8.68;;;4.43;;
28028;SDS011;15345;59.364;18.016;2023-06-14T05:06:12;13.50;;;4.63;;
28028;SDS011;15345;59.364;18.016;2023-06-14T05:07:32;11.05;;;4.18;;
28028;SDS011;15345;59.364;18.016;2023-06-14T05:08:53;11.85;;;3.72;;
28028;SDS011;15345;59.364;18.016;2023-06-14T05:10:12;7.75;;;3.60;;
28028;SDS011;15345;59.364;18.016;2023-06-14T05:11:30;13.98;;;3.60;;
28028;SDS011;15345;59.364;18.016;2023-06-14T05:12:49;15.00;;;4.03;;
28028;SDS011;15345;59.364;18.016;2023-06-14T05:14:08;15.27;;;3.67;;
28028;SDS011;15345;59.364;18.016;2023-06-14T05:15:27;8.85;;;3.28;;
28028;SDS011;15345;59.364;18.016;2023-06-14T05:16:47;8.20;;;3.60;;
28028;SDS011;15345;59.364;18.016;2023-06-14T05:18:07;9.88;;;3.50;;
28028;SDS011;15345;59.364;18.016;2023-06-14T05:19:28;17.17;;;3.78;;
28028;SDS011;15345;59.364;18.016;2023-06-14T05:20:47;16.00;;;3.60;;
28028;SDS011;15345;59.364;18.016;2023-06-14T05:22:06;8.10;;;3.22;;
28028;SDS011;15345;59.364;18.016;2023-06-14T05:23:25;12.07;;;3.17;;
28028;SDS011;15345;59.364;18.016;2023-06-14T05:24:44;7.38;;;2.80;;
28028;SDS011;15345;59.364;18.016;2023-06-14T05:26:07;15.40;;;3.85;;
28028;SDS011;15345;59.364;18.016;2023-06-14T05:27:25;15.82;;;3.28;;
28028;SDS011;15345;59.364;18.016;2023-06-14T05:28:44;8.88;;;2.67;;
28028;SDS011;15345;59.364;18.016;2023-06-14T05:30:03;8.80;;;3.45;;
28028;SDS011;15345;59.364;18.016;2023-06-14T05:31:22;12.25;;;3.47;;
28028;SDS011;15345;59.364;18.016;2023-06-14T05:32:42;11.05;;;3.03;;
28028;SDS011;15345;59.364;18.016;2023-06-14T05:34:02;12.57;;;3.33;;
28028;SDS011;15345;59.364;18.016;2023-06-14T05:35:20;8.32;;;3.38;;
28028;SDS011;15345;59.364;18.016;2023-06-14T05:36:40;10.23;;;3.42;;
28028;SDS011;15345;59.364;18.016;2023-06-14T05:38:00;8.20;;;3.50;;
28028;SDS011;15345;59.364;18.016;2023-06-14T05:39:19;7.78;;;3.22;;
28028;SDS011;15345;59.364;18.016;2023-06-14T05:40:38;7.72;;;2.95;;
28028;SDS011;15345;59.364;18.016;2023-06-14T05:41:57;13.23;;;3.22;;
28028;SDS011;15345;59.364;18.016;2023-06-14T05:43:16;7.80;;;2.65;;
28028;SDS011;15345;59.364;18.016;2023-06-14T05:44:34;10.52;;;2.55;;
28028;SDS011;15345;59.364;18.016;2023-06-14T05:45:53;12.52;;;3.22;;
28028;SDS011;15345;59.364;18.016;2023-06-14T05:47:12;6.28;;;3.08;;
28028;SDS011;15345;59.364;18.016;2023-06-14T05:48:31;11.20;;;3.20;;
28028;SDS011;15345;59.364;18.016;2023-06-14T05:49:50;8.25;;;3.67;;
28028;SDS011;15345;59.364;18.016;2023-06-14T05:51:09;7.72;;;3.42;;
28028;SDS011;15345;59.364;18.016;2023-06-14T05:52:28;8.07;;;3.05;;
28028;SDS011;15345;59.364;18.016;2023-06-14T05:53:48;7.68;;;3.33;;
28028;SDS011;15345;59.364;18.016;2023-06-14T05:55:08;11.93;;;3.70;;
28028;SDS011;15345;59.364;18.016;2023-06-14T05:56:27;14.18;;;3.40;;
28028;SDS011;15345;59.364;18.016;2023-06-14T05:57:47;14.23;;;3.38;;
28028;SDS011;15345;59.364;18.016;2023-06-14T05:59:06;10.73;;;3.55;;
28028;SDS011;15345;59.364;18.016;2023-06-14T06:00:26;12.82;;;3.33;;
28028;SDS011;15345;59.364;18.016;2023-06-14T06:01:45;14.30;;;3.13;;
28028;SDS011;15345;59.364;18.016;2023-06-14T06:03:04;11.85;;;3.42;;
28028;SDS011;15345;59.364;18.016;2023-06-14T06:04:26;6.10;;;3.60;;
28028;SDS011;15345;59.364;18.016;2023-06-14T06:05:45;8.23;;;3.22;;
28028;SDS011;15345;59.364;18.016;2023-06-14T06:07:04;8.80;;;3.40;;
28028;SDS011;15345;59.364;18.016;2023-06-14T06:08:24;9.77;;;3.22;;
28028;SDS011;15345;59.364;18.016;2023-06-14T06:09:43;6.35;;;2.92;;
28028;SDS011;15345;59.364;18.016;2023-06-14T06:11:02;6.47;;;2.80;;
28028;SDS011;15345;59.364;18.016;2023-06-14T06:12:21;7.20;;;2.63;;
28028;SDS011;15345;59.364;18.016;2023-06-14T06:13:40;8.57;;;2.47;;
28028;SDS011;15345;59.364;18.016;2023-06-14T06:14:59;11.20;;;2.90;;
28028;SDS011;15345;59.364;18.016;2023-06-14T06:16:19;8.15;;;2.78;;
28028;SDS011;15345;59.364;18.016;2023-06-14T06:17:38;7.88;;;2.72;;
28028;SDS011;15345;59.364;18.016;2023-06-14T06:18:57;9.13;;;2.72;;
28028;SDS011;15345;59.364;18.016;2023-06-14T06:20:16;12.05;;;3.30;;
28028;SDS011;15345;59.364;18.016;2023-06-14T06:21:36;9.15;;;3.20;;
28028;SDS011;15345;59.364;18.016;2023-06-14T06:22:55;5.88;;;3.03;;
28028;SDS011;15345;59.364;18.016;2023-06-14T06:24:14;6.53;;;3.15;;
28028;SDS011;15345;59.364;18.016;2023-06-14T06:25:33;4.45;;;2.67;;
28028;SDS011;15345;59.364;18.016;2023-06-14T06:26:52;4.88;;;2.53;;
28028;SDS011;15345;59.364;18.016;2023-06-14T06:28:11;6.80;;;2.90;;
28028;SDS011;15345;59.364;18.016;2023-06-14T06:29:30;9.30;;;2.88;;
28028;SDS011;15345;59.364;18.016;2023-06-14T06:30:49;5.03;;;2.90;;
28028;SDS011;15345;59.364;18.016;2023-06-14T06:32:09;6.65;;;2.92;;
28028;SDS011;15345;59.364;18.016;2023-06-14T06:33:29;13.77;;;2.80;;
28028;SDS011;15345;59.364;18.016;2023-06-14T06:34:48;4.75;;;2.90;;
28028;SDS011;15345;59.364;18.016;2023-06-14T06:36:07;7.93;;;3.03;;
28028;SDS011;15345;59.364;18.016;2023-06-14T06:37:26;7.55;;;2.60;;
28028;SDS011;15345;59.364;18.016;2023-06-14T06:38:45;12.88;;;2.47;;
28028;SDS011;15345;59.364;18.016;2023-06-14T06:40:04;6.22;;;2.63;;
28028;SDS011;15345;59.364;18.016;2023-06-14T06:41:24;10.95;;;2.88;;
28028;SDS011;15345;59.364;18.016;2023-06-14T06:42:43;5.45;;;2.30;;
28028;SDS011;15345;59.364;18.016;2023-06-14T06:44:02;6.53;;;2.40;;
28028;SDS011;15345;59.364;18.016;2023-06-14T06:45:21;9.48;;;2.50;;
28028;SDS011;15345;59.364;18.016;2023-06-14T06:46:43;4.22;;;2.00;;
28028;SDS011;15345;59.364;18.016;2023-06-14T06:48:02;8.88;;;2.70;;
28028;SDS011;15345;59.364;18.016;2023-06-14T06:49:21;4.07;;;2.83;;
28028;SDS011;15345;59.364;18.016;2023-06-14T06:50:40;8.23;;;2.83;;
28028;SDS011;15345;59.364;18.016;2023-06-14T06:52:02;7.60;;;2.80;;
28028;SDS011;15345;59.364;18.016;2023-06-14T06:53:21;14.23;;;3.38;;
28028;SDS011;15345;59.364;18.016;2023-06-14T06:54:40;10.15;;;2.83;;
28028;SDS011;15345;59.364;18.016;2023-06-14T06:55:59;11.82;;;3.05;;
28028;SDS011;15345;59.364;18.016;2023-06-14T06:57:18;6.90;;;2.78;;
28028;SDS011;15345;59.364;18.016;2023-06-14T06:58:38;11.27;;;3.22;;
28028;SDS011;15345;59.364;18.016;2023-06-14T06:59:57;7.82;;;2.90;;
28028;SDS011;15345;59.364;18.016;2023-06-14T07:01:17;8.02;;;2.60;;
28028;SDS011;15345;59.364;18.016;2023-06-14T07:02:36;6.82;;;2.60;;
28028;SDS011;15345;59.364;18.016;2023-06-14T07:03:55;11.30;;;2.60;;
28028;SDS011;15345;59.364;18.016;2023-06-14T07:05:14;7.75;;;2.42;;
28028;SDS011;15345;59.364;18.016;2023-06-14T07:06:33;9.05;;;3.40;;
28028;SDS011;15345;59.364;18.016;2023-06-14T07:07:52;6.85;;;2.83;;
28028;SDS011;15345;59.364;18.016;2023-06-14T07:09:11;7.28;;;2.63;;
28028;SDS011;15345;59.364;18.016;2023-06-14T07:10:34;10.88;;;2.50;;
28028;SDS011;15345;59.364;18.016;2023-06-14T07:11:53;7.57;;;2.70;;
28028;SDS011;15345;59.364;18.016;2023-06-14T07:13:12;6.00;;;2.40;;
28028;SDS011;15345;59.364;18.016;2023-06-14T07:14:32;4.20;;;2.33;;
28028;SDS011;15345;59.364;18.016;2023-06-14T07:15:54;4.25;;;2.50;;
28028;SDS011;15345;59.364;18.016;2023-06-14T07:17:13;6.63;;;3.22;;
28028;SDS011;15345;59.364;18.016;2023-06-14T07:18:32;10.88;;;2.47;;
28028;SDS011;15345;59.364;18.016;2023-06-14T07:19:52;9.20;;;2.67;;
28028;SDS011;15345;59.364;18.016;2023-06-14T07:21:11;5.50;;;2.47;;
28028;SDS011;15345;59.364;18.016;2023-06-14T07:22:30;7.05;;;2.33;;
28028;SDS011;15345;59.364;18.016;2023-06-14T07:23:49;7.47;;;2.60;;
28028;SDS011;15345;59.364;18.016;2023-06-14T07:25:09;5.10;;;2.20;;
28028;SDS011;15345;59.364;18.016;2023-06-14T07:26:28;5.32;;;3.05;;
28028;SDS011;15345;59.364;18.016;2023-06-14T07:27:47;4.32;;;2.72;;
28028;SDS011;15345;59.364;18.016;2023-06-14T07:29:06;8.02;;;2.80;;
28028;SDS011;15345;59.364;18.016;2023-06-14T07:30:25;8.38;;;2.92;;
28028;SDS011;15345;59.364;18.016;2023-06-14T07:31:45;10.00;;;2.90;;
28028;SDS011;15345;59.364;18.016;2023-06-14T07:33:05;5.90;;;2.92;;
28028;SDS011;15345;59.364;18.016;2023-06-14T07:34:24;6.40;;;2.20;;
28028;SDS011;15345;59.364;18.016;2023-06-14T07:35:43;5.30;;;2.45;;
28028;SDS011;15345;59.364;18.016;2023-06-14T07:37:02;2.95;;;2.50;;
28028;SDS011;15345;59.364;18.016;2023-06-14T07:38:21;3.92;;;2.88;;
28028;SDS011;15345;59.364;18.016;2023-06-14T07:39:40;6.15;;;2.67;;
28028;SDS011;15345;59.364;18.016;2023-06-14T07:40:59;3.47;;;2.20;;
28028;SDS011;15345;59.364;18.016;2023-06-14T07:42:18;4.25;;;2.42;;
28028;SDS011;15345;59.364;18.016;2023-06-14T07:43:37;5.13;;;2.65;;
28028;SDS011;15345;59.364;18.016;2023-06-14T07:44:56;7.10;;;2.65;;
28028;SDS011;15345;59.364;18.016;2023-06-14T07:46:15;5.50;;;2.47;;
28028;SDS011;15345;59.364;18.016;2023-06-14T07:47:34;6.85;;;2.50;;
28028;SDS011;15345;59.364;18.016;2023-06-14T07:48:53;3.17;;;2.33;;
28028;SDS011;15345;59.364;18.016;2023-06-14T07:50:12;4.00;;;2.40;;
28028;SDS011;15345;59.364;18.016;2023-06-14T07:51:32;3.58;;;2.50;;
28028;SDS011;15345;59.364;18.016;2023-06-14T07:52:51;9.35;;;2.72;;
28028;SDS011;15345;59.364;18.016;2023-06-14T07:54:10;3.30;;;2.30;;
28028;SDS011;15345;59.364;18.016;2023-06-14T07:55:29;6.38;;;2.50;;